LIMS

Piacenza Air Base

Airport
ICAO code
LIMS
IATA Code
QPZ
Summary
ICAO Region
EUR
ICAO Territory
Location

Paiacenza, Emilia-Romagna

Serving
Piacenza
Elevation
456 ft
Coordinates
44° 54' 54" N , 9° 43' 11" E
KCC
Metar
Observation
LIMS 031755Z 21003KT CAVOK 06/06 Q1021
Station
Piacenza
Date/Time
2023-02-03 17:55:00
Wind direction
210°
Wind speed
03 kts
Lowest cloud amount
clouds and visibility OK
Temperature
6°C
Dew point
6°C
Humidity
100%
QNH
1021 hPa
Weather condition
n/a

Piacenza-San Damiano Air Base was a military airport located in Piacenza, Emilia-Romagna, Italy, which was closed on 1 September 2017.

Climatology

Humid subtropical climate (Köppen climate classification Cfa)

Runways

Designator Length Width Surface Rops
12/30 2996 45 ASP No/No

Airport map

Aerial View

SKYbrary Partners:

Safety knowledge contributed by: